Time;durP1;ratioP1;P1;durP2;ratioP2;P2;SDS_P1;SDS_P2;PMS_P1;PMS_P2;Temp;Humidity;BMP_temperature;BMP_pressure;BME280_temperature;BME280_humidity;BME280_pressure;Samples;Min_cycle;Max_cycle;Signal;HPM_P1;HPM_P2
2024/01/13 00:02:31;;;;;;;41.88;23.95;;;;;;;;;;6309168;28;20047;-73
2024/01/13 00:05:33;;;;;;;31.25;21.52;;;;;;;;;;6292131;28;20156;-73
2024/01/13 00:08:36;;;;;;;25.33;17.55;;;;;;;;;;6280448;28;20052;-74
2024/01/13 00:11:39;;;;;;;38.03;22.90;;;;;;;;;;6307687;28;20055;-73
2024/01/13 00:14:41;;;;;;;26.55;15.57;;;;;;;;;;6266932;28;20109;-74
2024/01/13 00:17:44;;;;;;;28.67;20.15;;;;;;;;;;6269443;28;20055;-73
2024/01/13 00:20:46;;;;;;;40.45;19.35;;;;;;;;;;6302711;28;20492;-72
2024/01/13 00:23:48;;;;;;;36.00;20.55;;;;;;;;;;6306407;28;20044;-73
2024/01/13 00:26:51;;;;;;;57.72;30.30;;;;;;;;;;6289916;28;20043;-73
2024/01/13 00:29:53;;;;;;;96.78;43.65;;;;;;;;;;6288110;28;20047;-73
2024/01/13 00:32:55;;;;;;;56.80;34.10;;;;;;;;;;6298861;28;20055;-73
2024/01/13 00:35:58;;;;;;;56.70;29.52;;;;;;;;;;6287366;28;20049;-72
2024/01/13 00:39:00;;;;;;;44.03;23.70;;;;;;;;;;6297879;28;20048;-73
2024/01/13 00:42:02;;;;;;;74.68;36.72;;;;;;;;;;6283624;28;20122;-73
2024/01/13 00:45:05;;;;;;;70.75;35.60;;;;;;;;;;6288984;28;20815;-73
2024/01/13 00:48:08;;;;;;;67.85;39.10;;;;;;;;;;6299918;28;20044;-72
2024/01/13 00:51:14;;;;;;;50.33;26.92;;;;;;;;;;6276080;28;20177;-73
2024/01/13 00:54:17;;;;;;;52.35;27.42;;;;;;;;;;6307215;28;20517;-72
2024/01/13 00:57:19;;;;;;;59.03;29.63;;;;;;;;;;6278551;28;20099;-73
2024/01/13 01:00:21;;;;;;;49.28;27.10;;;;;;;;;;6292487;28;20067;-73
2024/01/13 01:03:23;;;;;;;44.17;23.73;;;;;;;;;;6311260;28;20041;-72
2024/01/13 01:06:25;;;;;;;33.08;20.17;;;;;;;;;;6284926;28;20139;-73
2024/01/13 01:09:28;;;;;;;53.40;28.08;;;;;;;;;;6306032;28;20575;-72
2024/01/13 01:12:30;;;;;;;57.70;28.80;;;;;;;;;;6299930;28;20051;-72
2024/01/13 01:15:32;;;;;;;52.78;24.05;;;;;;;;;;6309750;28;20145;-73
2024/01/13 01:18:34;;;;;;;41.97;22.65;;;;;;;;;;6312766;28;20056;-72
2024/01/13 01:21:47;;;;;;;;;;;;;;;;;;6299633;28;20051;-73
2024/01/13 01:24:49;;;;;;;41.45;24.45;;;;;;;;;;6272308;28;19924;-72
2024/01/13 01:27:51;;;;;;;35.78;22.02;;;;;;;;;;6293713;28;20059;-72
2024/01/13 01:30:53;;;;;;;27.55;16.08;;;;;;;;;;6292816;28;20052;-72
2024/01/13 01:33:56;;;;;;;39.58;24.83;;;;;;;;;;6314880;28;20054;-72
2024/01/13 01:36:58;;;;;;;29.63;20.25;;;;;;;;;;6309949;28;20055;-73
2024/01/13 01:40:00;;;;;;;38.13;22.13;;;;;;;;;;6246949;28;20048;-73
2024/01/13 01:43:03;;;;;;;41.95;22.73;;;;;;;;;;6307929;28;20928;-72
2024/01/13 01:46:06;;;;;;;41.28;24.20;;;;;;;;;;6291400;28;20189;-72
2024/01/13 01:49:09;;;;;;;26.55;16.83;;;;;;;;;;6288621;28;20036;-73
2024/01/13 01:52:12;;;;;;;27.73;15.93;;;;;;;;;;6274909;28;20868;-73
2024/01/13 01:55:15;;;;;;;28.15;16.33;;;;;;;;;;6302840;28;20074;-72
2024/01/13 01:58:19;;;;;;;24.95;13.00;;;;;;;;;;6306538;28;20070;-73
2024/01/13 02:01:32;;;;;;;22.27;13.93;;;;;;;;;;6262397;28;20051;-72
2024/01/13 02:04:34;;;;;;;17.85;9.60;;;;;;;;;;6299901;28;20421;-72
2024/01/13 02:07:36;;;;;;;32.95;16.02;;;;;;;;;;6291593;28;20051;-72
2024/01/13 02:10:38;;;;;;;24.33;13.95;;;;;;;;;;6254194;28;20051;-73
2024/01/13 02:13:42;;;;;;;28.50;14.40;;;;;;;;;;6280409;28;20132;-72
2024/01/13 02:16:44;;;;;;;20.77;14.35;;;;;;;;;;6290430;28;20598;-73
2024/01/13 02:19:47;;;;;;;17.58;10.30;;;;;;;;;;6277049;28;20050;-73
2024/01/13 02:22:50;;;;;;;21.48;9.52;;;;;;;;;;6287324;28;20130;-73
2024/01/13 02:25:52;;;;;;;21.10;11.85;;;;;;;;;;6308827;28;20056;-73
2024/01/13 02:28:55;;;;;;;25.48;12.75;;;;;;;;;;6273592;28;20213;-74
2024/01/13 02:31:57;;;;;;;19.02;11.88;;;;;;;;;;6294000;28;20043;-74
2024/01/13 02:35:00;;;;;;;10.98;6.20;;;;;;;;;;6290873;28;20733;-73
2024/01/13 02:38:02;;;;;;;25.77;13.88;;;;;;;;;;6286354;28;20052;-73
2024/01/13 02:41:04;;;;;;;28.20;13.90;;;;;;;;;;6294147;28;20047;-73
2024/01/13 02:44:09;;;;;;;18.08;10.88;;;;;;;;;;6290236;28;20513;-74
2024/01/13 02:47:11;;;;;;;33.70;16.75;;;;;;;;;;6308804;28;20127;-72
2024/01/13 02:50:14;;;;;;;20.95;12.63;;;;;;;;;;6305110;28;20043;-74
2024/01/13 02:53:16;;;;;;;25.90;12.07;;;;;;;;;;6296907;28;20052;-73
2024/01/13 02:56:18;;;;;;;28.90;14.27;;;;;;;;;;6312688;28;20044;-73
2024/01/13 02:59:20;;;;;;;15.50;11.82;;;;;;;;;;6280048;28;20044;-74
2024/01/13 03:02:23;;;;;;;28.00;16.25;;;;;;;;;;6291255;28;20152;-73
2024/01/13 03:05:25;;;;;;;23.25;12.38;;;;;;;;;;6304600;28;20036;-73
2024/01/13 03:08:30;;;;;;;33.20;15.82;;;;;;;;;;6306280;28;20763;-73
2024/01/13 03:11:42;;;;;;;21.38;12.00;;;;;;;;;;6293943;28;20043;-72
2024/01/13 03:14:45;;;;;;;17.33;14.77;;;;;;;;;;6309691;28;20906;-72
2024/01/13 03:17:47;;;;;;;31.05;14.20;;;;;;;;;;6291602;28;20044;-73
2024/01/13 03:20:49;;;;;;;28.98;13.80;;;;;;;;;;6308339;28;20508;-74
2024/01/13 03:23:52;;;;;;;24.27;12.35;;;;;;;;;;6304246;28;20046;-73
2024/01/13 03:26:54;;;;;;;14.27;10.13;;;;;;;;;;6292573;28;20090;-74
2024/01/13 03:29:56;;;;;;;24.55;12.75;;;;;;;;;;6279115;28;20522;-74
2024/01/13 03:32:59;;;;;;;16.27;10.65;;;;;;;;;;6254457;28;20226;-74
2024/01/13 03:36:01;;;;;;;32.35;14.55;;;;;;;;;;6294996;28;20513;-73
2024/01/13 03:39:03;;;;;;;16.42;9.48;;;;;;;;;;6309612;28;20139;-73
2024/01/13 03:42:06;;;;;;;24.70;16.88;;;;;;;;;;6290921;28;20902;-74
2024/01/13 03:45:09;;;;;;;23.25;12.13;;;;;;;;;;6286985;28;20740;-73
2024/01/13 03:48:12;;;;;;;23.90;14.02;;;;;;;;;;6272719;28;20040;-73
2024/01/13 03:51:15;;;;;;;18.08;9.63;;;;;;;;;;6272771;28;20071;-73
2024/01/13 03:54:18;;;;;;;16.33;9.45;;;;;;;;;;6274535;28;20032;-73
2024/01/13 03:57:20;;;;;;;21.92;11.27;;;;;;;;;;6305528;28;20556;-73
2024/01/13 04:00:23;;;;;;;13.85;7.85;;;;;;;;;;6307931;28;20461;-73
2024/01/13 04:03:25;;;;;;;37.35;11.30;;;;;;;;;;6324832;27;20048;-73
2024/01/13 04:06:28;;;;;;;17.98;10.95;;;;;;;;;;6252012;28;20521;-73
2024/01/13 04:09:30;;;;;;;25.35;14.27;;;;;;;;;;6295964;28;20097;-72
2024/01/13 04:12:32;;;;;;;11.77;8.80;;;;;;;;;;6275571;28;20055;-73
2024/01/13 04:15:34;;;;;;;14.35;10.02;;;;;;;;;;6300465;28;20612;-73
2024/01/13 04:18:37;;;;;;;15.38;12.15;;;;;;;;;;6286028;28;20548;-73
2024/01/13 04:21:41;;;;;;;25.67;15.23;;;;;;;;;;6297577;28;20040;-73
2024/01/13 04:24:43;;;;;;;11.85;6.38;;;;;;;;;;6311714;28;20636;-74
2024/01/13 04:27:45;;;;;;;21.52;10.35;;;;;;;;;;6307968;28;20047;-74
2024/01/13 04:30:47;;;;;;;13.68;8.90;;;;;;;;;;6289744;28;20050;-74
2024/01/13 04:33:49;;;;;;;31.75;17.00;;;;;;;;;;6309385;28;20055;-74
2024/01/13 04:36:53;;;;;;;26.27;10.82;;;;;;;;;;6293251;28;20047;-74
2024/01/13 04:39:56;;;;;;;19.95;11.60;;;;;;;;;;6288257;28;20761;-74
2024/01/13 04:42:58;;;;;;;8.68;7.40;;;;;;;;;;6280623;28;20073;-74
2024/01/13 04:46:00;;;;;;;19.67;11.35;;;;;;;;;;6284809;28;20120;-74
2024/01/13 04:49:02;;;;;;;14.77;10.45;;;;;;;;;;6274653;28;20048;-73
2024/01/13 04:52:04;;;;;;;17.02;8.50;;;;;;;;;;6277508;28;20115;-73
2024/01/13 04:55:07;;;;;;;18.85;10.48;;;;;;;;;;6284060;28;20066;-73
2024/01/13 04:58:10;;;;;;;16.73;9.93;;;;;;;;;;6286419;28;20050;-73
2024/01/13 05:01:12;;;;;;;13.52;8.18;;;;;;;;;;6264590;28;20051;-74
2024/01/13 05:04:14;;;;;;;15.70;8.48;;;;;;;;;;6295847;28;20398;-73
2024/01/13 05:07:19;;;;;;;26.58;13.90;;;;;;;;;;6316399;28;20036;-73
2024/01/13 05:10:22;;;;;;;60.67;25.05;;;;;;;;;;6295285;28;20059;-74
2024/01/13 05:13:24;;;;;;;18.13;11.15;;;;;;;;;;6310490;28;20067;-74
2024/01/13 05:16:27;;;;;;;25.65;11.48;;;;;;;;;;6276486;28;20105;-73
2024/01/13 05:19:29;;;;;;;18.52;11.00;;;;;;;;;;6264259;28;20578;-73
2024/01/13 05:22:31;;;;;;;31.33;20.17;;;;;;;;;;6297262;28;20075;-73
2024/01/13 05:25:35;;;;;;;31.65;14.02;;;;;;;;;;6288930;28;20117;-73
2024/01/13 05:28:37;;;;;;;24.10;10.05;;;;;;;;;;6290060;28;20517;-74
2024/01/13 05:31:42;;;;;;;12.77;8.13;;;;;;;;;;6299062;28;20077;-74
2024/01/13 05:34:44;;;;;;;13.50;8.02;;;;;;;;;;6303661;28;20681;-74
2024/01/13 05:37:46;;;;;;;22.83;11.85;;;;;;;;;;6290404;28;20044;-74
2024/01/13 05:40:49;;;;;;;19.83;12.25;;;;;;;;;;6270339;28;20778;-74
2024/01/13 05:43:51;;;;;;;21.88;15.48;;;;;;;;;;6287534;28;20132;-74
2024/01/13 05:46:53;;;;;;;32.85;16.80;;;;;;;;;;6273672;28;20043;-74
2024/01/13 05:49:55;;;;;;;34.03;21.35;;;;;;;;;;6296259;28;20048;-74
2024/01/13 05:52:57;;;;;;;12.52;8.98;;;;;;;;;;6289072;28;20584;-75
2024/01/13 05:56:00;;;;;;;26.30;14.95;;;;;;;;;;6316644;28;20040;-74
2024/01/13 05:59:02;;;;;;;20.23;14.27;;;;;;;;;;6305906;28;20047;-74
2024/01/13 06:02:04;;;;;;;25.48;15.55;;;;;;;;;;6295081;28;20063;-74
2024/01/13 06:05:06;;;;;;;18.05;12.35;;;;;;;;;;6294618;28;20097;-74
2024/01/13 06:08:09;;;;;;;16.70;11.50;;;;;;;;;;6293101;28;20802;-74
2024/01/13 06:11:11;;;;;;;31.88;17.00;;;;;;;;;;6287537;28;20044;-74
2024/01/13 06:14:13;;;;;;;15.02;9.60;;;;;;;;;;6269251;28;20053;-74
2024/01/13 06:17:15;;;;;;;17.45;12.18;;;;;;;;;;6322561;28;20113;-73
2024/01/13 06:20:17;;;;;;;22.73;13.65;;;;;;;;;;6301525;28;20040;-73
2024/01/13 06:23:21;;;;;;;48.17;29.35;;;;;;;;;;6309419;28;20035;-73
2024/01/13 06:26:23;;;;;;;24.38;14.05;;;;;;;;;;6276729;28;20043;-73
2024/01/13 06:29:27;;;;;;;37.83;20.05;;;;;;;;;;6293184;28;20047;-73
2024/01/13 06:32:29;;;;;;;28.33;15.27;;;;;;;;;;6275304;28;20044;-73
2024/01/13 06:35:31;;;;;;;29.83;14.65;;;;;;;;;;6320068;28;20062;-73
2024/01/13 06:38:35;;;;;;;25.85;17.40;;;;;;;;;;6308962;28;20055;-74
2024/01/13 06:41:39;;;;;;;42.55;21.67;;;;;;;;;;6309953;28;20175;-74
2024/01/13 06:44:59;;;;;;;36.53;20.55;;;;;;;;;;6306491;28;20531;-77
2024/01/13 06:48:15;;;;;;;117.55;45.42;;;;;;;;;;6312075;28;20044;-74
2024/01/13 06:51:17;;;;;;;34.20;18.10;;;;;;;;;;6285987;28;20145;-76
2024/01/13 06:54:19;;;;;;;24.67;17.45;;;;;;;;;;6287428;28;20055;-75
2024/01/13 06:57:22;;;;;;;38.85;25.65;;;;;;;;;;6278366;28;20044;-74
2024/01/13 07:00:25;;;;;;;30.55;17.50;;;;;;;;;;6292570;28;20520;-74
2024/01/13 07:03:31;;;;;;;36.55;23.38;;;;;;;;;;6290440;28;20048;-74
2024/01/13 07:06:33;;;;;;;22.83;17.08;;;;;;;;;;6299665;28;20059;-75
2024/01/13 07:09:38;;;;;;;15.02;10.88;;;;;;;;;;6261081;28;20055;-74
2024/01/13 07:12:40;;;;;;;22.50;16.70;;;;;;;;;;6274068;28;20087;-74
2024/01/13 07:15:44;;;;;;;31.73;18.80;;;;;;;;;;6298316;28;20040;-75
2024/01/13 07:18:46;;;;;;;15.20;13.65;;;;;;;;;;6282937;28;20044;-75
2024/01/13 07:21:48;;;;;;;30.45;17.42;;;;;;;;;;6278943;28;20125;-73
2024/01/13 07:24:50;;;;;;;19.75;11.68;;;;;;;;;;6292720;28;20047;-75
2024/01/13 07:27:53;;;;;;;48.70;27.42;;;;;;;;;;6263397;28;20048;-74
2024/01/13 07:30:56;;;;;;;49.58;20.10;;;;;;;;;;6291883;28;20040;-74
2024/01/13 07:33:58;;;;;;;48.70;25.50;;;;;;;;;;6308241;28;20630;-74
2024/01/13 07:37:01;;;;;;;44.53;23.83;;;;;;;;;;6293824;28;20060;-74
2024/01/13 07:40:08;;;;;;;26.63;19.17;;;;;;;;;;6315591;28;20090;-74
2024/01/13 07:43:11;;;;;;;28.85;16.73;;;;;;;;;;6312371;28;20044;-74
2024/01/13 07:46:13;;;;;;;44.15;25.90;;;;;;;;;;6298918;28;20040;-74
2024/01/13 07:49:15;;;;;;;29.20;16.80;;;;;;;;;;6286074;28;20079;-74
2024/01/13 07:52:18;;;;;;;9.30;6.13;;;;;;;;;;6318734;28;20112;-75
2024/01/13 07:55:23;;;;;;;24.35;14.02;;;;;;;;;;6293205;28;20055;-76
2024/01/13 07:58:26;;;;;;;22.65;14.32;;;;;;;;;;6262902;28;20044;-74
2024/01/13 08:01:28;;;;;;;26.15;14.40;;;;;;;;;;6303428;28;20036;-73
2024/01/13 08:04:43;;;;;;;31.08;14.88;;;;;;;;;;6310726;28;20505;-74
2024/01/13 08:07:45;;;;;;;;;;;;;;;;;;6306767;28;20398;-75
2024/01/13 08:10:48;;;;;;;27.67;13.27;;;;;;;;;;6290953;28;20057;-75
2024/01/13 08:13:52;;;;;;;17.38;15.45;;;;;;;;;;6271870;28;20710;-75
2024/01/13 08:16:56;;;;;;;28.90;15.93;;;;;;;;;;6282665;28;20130;-74
2024/01/13 08:19:58;;;;;;;24.10;12.23;;;;;;;;;;6287402;28;20036;-75
2024/01/13 08:23:00;;;;;;;18.02;13.55;;;;;;;;;;6272336;28;20674;-75
2024/01/13 08:26:03;;;;;;;33.35;15.95;;;;;;;;;;6287284;28;20097;-75
2024/01/13 08:29:05;;;;;;;21.17;11.73;;;;;;;;;;6276405;28;20051;-75
2024/01/13 08:32:07;;;;;;;24.73;15.10;;;;;;;;;;6268305;28;20086;-74
2024/01/13 08:35:11;;;;;;;26.80;14.63;;;;;;;;;;6265280;28;20183;-74
2024/01/13 08:38:13;;;;;;;30.13;17.55;;;;;;;;;;6306950;28;20067;-73
2024/01/13 08:41:16;;;;;;;25.17;15.35;;;;;;;;;;6311557;28;20448;-73
2024/01/13 08:44:33;;;;;;;42.45;21.13;;;;;;;;;;6289171;28;20063;-74
2024/01/13 08:47:36;;;;;;;14.48;11.52;;;;;;;;;;6299253;28;20056;-76
2024/01/13 08:50:40;;;;;;;24.38;12.50;;;;;;;;;;6284085;28;20051;-75
2024/01/13 08:53:42;;;;;;;17.27;9.00;;;;;;;;;;6292072;28;20490;-75
2024/01/13 08:56:44;;;;;;;7.65;6.88;;;;;;;;;;6294548;28;20555;-75
2024/01/13 08:59:46;;;;;;;31.27;18.70;;;;;;;;;;6267082;28;20047;-73
2024/01/13 09:02:49;;;;;;;27.80;13.38;;;;;;;;;;6315846;28;20048;-76
2024/01/13 09:05:52;;;;;;;34.40;19.27;;;;;;;;;;6297881;28;20044;-76
2024/01/13 09:08:55;;;;;;;21.60;14.68;;;;;;;;;;6326139;28;20520;-75
2024/01/13 09:11:58;;;;;;;6.88;5.25;;;;;;;;;;6317202;28;20900;-75
2024/01/13 09:15:00;;;;;;;13.93;8.60;;;;;;;;;;6299908;28;20051;-75
2024/01/13 09:18:03;;;;;;;13.52;10.50;;;;;;;;;;6303819;28;20056;-74
2024/01/13 09:21:09;;;;;;;14.43;8.57;;;;;;;;;;6309792;28;20044;-75
2024/01/13 09:24:22;;;;;;;16.42;12.75;;;;;;;;;;6318633;28;20172;-74
2024/01/13 09:27:24;;;;;;;13.13;6.68;;;;;;;;;;6311325;28;20040;-74
2024/01/13 09:30:27;;;;;;;24.98;13.45;;;;;;;;;;6289308;28;20043;-72
2024/01/13 09:33:30;;;;;;;13.35;8.48;;;;;;;;;;6286169;28;20068;-74
2024/01/13 09:36:32;;;;;;;13.20;9.38;;;;;;;;;;6289518;28;20153;-72
2024/01/13 09:39:36;;;;;;;16.90;8.50;;;;;;;;;;6299210;28;20044;-74
2024/01/13 09:43:00;;;;;;;13.32;7.32;;;;;;;;;;6302681;28;20044;-73
2024/01/13 09:46:04;;;;;;;14.80;7.68;;;;;;;;;;6312290;28;20552;-75
2024/01/13 09:49:10;;;;;;;12.55;7.50;;;;;;;;;;6308492;28;20104;-75
2024/01/13 09:52:13;;;;;;;15.57;9.63;;;;;;;;;;6306646;28;20079;-75
2024/01/13 09:55:17;;;;;;;20.50;9.38;;;;;;;;;;6293977;28;20052;-74
2024/01/13 09:58:20;;;;;;;17.10;10.07;;;;;;;;;;6297164;28;20180;-74
2024/01/13 10:01:23;;;;;;;14.93;9.75;;;;;;;;;;6277121;28;20052;-74
2024/01/13 10:04:37;;;;;;;11.10;7.38;;;;;;;;;;6285855;28;20045;-74
2024/01/13 10:07:43;;;;;;;17.42;9.52;;;;;;;;;;6280161;28;20081;-74
2024/01/13 10:10:45;;;;;;;21.63;14.13;;;;;;;;;;6292538;28;20040;-74
2024/01/13 10:14:01;;;;;;;13.32;9.98;;;;;;;;;;6285232;28;20044;-74
2024/01/13 10:17:04;;;;;;;7.28;3.70;;;;;;;;;;6311813;28;20051;-74
2024/01/13 10:20:10;;;;;;;18.60;9.35;;;;;;;;;;6260860;28;20056;-75
2024/01/13 10:23:13;;;;;;;10.05;8.05;;;;;;;;;;6294171;28;20169;-75
2024/01/13 10:26:15;;;;;;;16.83;10.80;;;;;;;;;;6293026;28;20093;-74
2024/01/13 10:29:19;;;;;;;10.27;7.38;;;;;;;;;;6307474;28;20050;-74
2024/01/13 10:32:21;;;;;;;14.77;9.45;;;;;;;;;;6274761;28;20132;-75
2024/01/13 10:35:23;;;;;;;19.17;16.17;;;;;;;;;;6302116;28;20040;-74
2024/01/13 10:38:27;;;;;;;14.25;8.93;;;;;;;;;;6270543;28;20137;-75
2024/01/13 10:41:30;;;;;;;16.70;12.02;;;;;;;;;;6290823;28;20050;-75
2024/01/13 10:44:41;;;;;;;8.77;7.68;;;;;;;;;;6278065;28;20048;-74
2024/01/13 10:47:51;;;;;;;15.65;8.27;;;;;;;;;;6286979;28;20040;-74
2024/01/13 10:50:55;;;;;;;18.30;13.55;;;;;;;;;;6343744;27;20055;-75
2024/01/13 10:53:59;;;;;;;13.05;10.77;;;;;;;;;;6312155;28;20843;-75
2024/01/13 10:57:01;;;;;;;16.25;6.35;;;;;;;;;;6276200;28;20087;-75
2024/01/13 11:00:06;;;;;;;15.75;12.98;;;;;;;;;;6287963;28;20047;-75
2024/01/13 11:03:14;;;;;;;16.65;13.13;;;;;;;;;;6296631;28;20047;-75
2024/01/13 11:06:17;;;;;;;10.57;7.18;;;;;;;;;;6297437;28;20040;-75
2024/01/13 11:09:20;;;;;;;14.68;8.95;;;;;;;;;;6285544;28;20040;-75
2024/01/13 11:12:28;;;;;;;15.82;10.45;;;;;;;;;;6299690;28;20040;-75
2024/01/13 11:15:55;;;;;;;13.18;10.50;;;;;;;;;;6285868;28;20036;-76
2024/01/13 11:18:58;;;;;;;15.13;12.77;;;;;;;;;;6248952;28;20055;-75
2024/01/13 11:22:00;;;;;;;15.30;9.75;;;;;;;;;;6292284;28;20045;-75
2024/01/13 11:25:06;;;;;;;12.75;9.07;;;;;;;;;;6266322;28;20107;-75
2024/01/13 11:28:13;;;;;;;;;;;;;;;;;;6273153;28;20051;-74
2024/01/13 11:31:36;;;;;;;12.25;6.38;;;;;;;;;;6271356;28;19936;-74
2024/01/13 11:34:49;;;;;;;14.32;11.40;;;;;;;;;;6295308;28;20050;-74
2024/01/13 11:37:54;;;;;;;14.73;10.30;;;;;;;;;;6284652;28;20032;-74
2024/01/13 11:40:57;;;;;;;17.52;11.23;;;;;;;;;;6312676;28;20044;-74
2024/01/13 11:43:59;;;;;;;20.30;9.18;;;;;;;;;;6287230;28;20039;-74
2024/01/13 11:47:05;;;;;;;12.88;8.55;;;;;;;;;;6295319;28;20127;-75
2024/01/13 11:50:38;;;;;;;10.98;7.18;;;;;;;;;;6302791;28;20039;-74
2024/01/13 11:53:42;;;;;;;15.00;8.57;;;;;;;;;;6289910;28;20048;-74
2024/01/13 11:56:44;;;;;;;11.13;8.80;;;;;;;;;;6299127;28;20051;-74
2024/01/13 11:59:48;;;;;;;14.18;9.00;;;;;;;;;;6296217;28;20058;-74
2024/01/13 12:02:50;;;;;;;16.23;10.32;;;;;;;;;;6294877;28;20089;-75
2024/01/13 12:05:53;;;;;;;10.65;8.02;;;;;;;;;;6277902;28;20039;-75
2024/01/13 12:08:55;;;;;;;14.10;9.30;;;;;;;;;;6293259;28;20051;-75
2024/01/13 12:12:05;;;;;;;14.95;11.00;;;;;;;;;;6283262;28;20048;-73
2024/01/13 12:15:08;;;;;;;15.13;10.55;;;;;;;;;;6322617;27;20131;-74
2024/01/13 12:18:27;;;;;;;14.55;8.52;;;;;;;;;;6319050;28;20810;-75
2024/01/13 12:21:29;;;;;;;;;;;;;;;;;;6310734;28;20036;-75
2024/01/13 12:24:35;;;;;;;14.30;10.25;;;;;;;;;;6277809;28;19924;-76
2024/01/13 12:27:37;;;;;;;16.65;10.02;;;;;;;;;;6266545;28;20449;-73
2024/01/13 12:30:40;;;;;;;9.98;5.68;;;;;;;;;;6301169;27;20453;-75
2024/01/13 12:33:42;;;;;;;13.30;9.18;;;;;;;;;;6298239;28;20051;-75
2024/01/13 12:36:45;;;;;;;13.73;8.13;;;;;;;;;;6278510;28;20047;-75
2024/01/13 12:39:48;;;;;;;12.00;6.30;;;;;;;;;;6301681;28;20150;-75
2024/01/13 12:42:50;;;;;;;14.15;9.45;;;;;;;;;;6296127;28;20059;-75
2024/01/13 12:45:54;;;;;;;11.52;6.93;;;;;;;;;;6278133;28;20044;-74
2024/01/13 12:49:07;;;;;;;10.65;9.02;;;;;;;;;;6305360;28;20047;-74
2024/01/13 12:52:09;;;;;;;19.00;10.00;;;;;;;;;;6295452;28;20737;-76
2024/01/13 12:55:12;;;;;;;10.75;7.78;;;;;;;;;;6293243;28;20048;-75
2024/01/13 12:58:18;;;;;;;14.05;12.63;;;;;;;;;;6311554;28;20776;-75
2024/01/13 13:01:21;;;;;;;19.42;9.40;;;;;;;;;;6305007;28;20449;-75
2024/01/13 13:04:24;;;;;;;14.32;9.93;;;;;;;;;;6302188;28;20054;-75
2024/01/13 13:07:28;;;;;;;20.48;11.27;;;;;;;;;;6301903;28;20256;-76
2024/01/13 13:10:30;;;;;;;15.05;8.52;;;;;;;;;;6283695;28;20044;-76
2024/01/13 13:13:34;;;;;;;10.07;6.03;;;;;;;;;;6291989;28;20056;-75
2024/01/13 13:16:36;;;;;;;17.17;9.82;;;;;;;;;;6294695;28;20147;-74
2024/01/13 13:19:39;;;;;;;12.20;7.15;;;;;;;;;;6310447;28;20055;-75
2024/01/13 13:22:41;;;;;;;14.77;7.85;;;;;;;;;;6315390;28;20508;-76
2024/01/13 13:25:43;;;;;;;7.97;5.80;;;;;;;;;;6292464;28;20052;-75
2024/01/13 13:28:47;;;;;;;8.85;5.10;;;;;;;;;;6282184;28;20056;-75
2024/01/13 13:31:49;;;;;;;12.68;7.57;;;;;;;;;;6290913;28;20092;-75
2024/01/13 13:34:59;;;;;;;15.68;9.18;;;;;;;;;;6317527;28;20124;-76
2024/01/13 13:38:16;;;;;;;14.52;8.70;;;;;;;;;;6301914;28;20051;-74
2024/01/13 13:41:18;;;;;;;11.45;5.68;;;;;;;;;;6347243;28;20032;-76
2024/01/13 13:44:20;;;;;;;14.15;10.65;;;;;;;;;;6292367;28;20044;-76
2024/01/13 13:47:22;;;;;;;12.40;8.32;;;;;;;;;;6292055;28;20149;-75
2024/01/13 13:50:25;;;;;;;18.48;11.55;;;;;;;;;;6265375;28;20052;-76
2024/01/13 13:53:28;;;;;;;9.95;5.43;;;;;;;;;;6285417;28;20048;-77
2024/01/13 13:56:30;;;;;;;13.52;9.65;;;;;;;;;;6256621;28;20040;-76
2024/01/13 13:59:33;;;;;;;8.65;4.75;;;;;;;;;;6306328;28;20139;-76
2024/01/13 14:02:37;;;;;;;12.15;7.72;;;;;;;;;;6277111;28;20055;-75
2024/01/13 14:05:42;;;;;;;15.20;11.05;;;;;;;;;;6306058;28;20055;-75
2024/01/13 14:08:44;;;;;;;13.05;8.82;;;;;;;;;;6281891;28;20331;-74
2024/01/13 14:11:47;;;;;;;13.43;9.75;;;;;;;;;;6284421;28;20533;-75
2024/01/13 14:14:49;;;;;;;13.13;10.32;;;;;;;;;;6298077;28;20581;-75
2024/01/13 14:18:11;;;;;;;11.38;7.45;;;;;;;;;;6286252;28;20033;-75
2024/01/13 14:21:17;;;;;;;12.27;6.90;;;;;;;;;;6301480;28;20122;-75
2024/01/13 14:24:19;;;;;;;12.73;7.28;;;;;;;;;;6261323;28;20117;-75
2024/01/13 14:27:21;;;;;;;13.98;10.07;;;;;;;;;;6299919;28;20043;-75
2024/01/13 14:30:23;;;;;;;14.25;8.40;;;;;;;;;;6270261;28;20055;-77
2024/01/13 14:33:26;;;;;;;15.20;8.82;;;;;;;;;;6284212;28;20057;-77
2024/01/13 14:36:28;;;;;;;18.38;4.90;;;;;;;;;;6310105;28;20068;-75
2024/01/13 14:39:36;;;;;;;15.80;8.10;;;;;;;;;;6290580;28;20059;-77
2024/01/13 14:42:43;;;;;;;15.43;10.82;;;;;;;;;;6317020;28;20051;-75
2024/01/13 14:45:47;;;;;;;19.70;11.02;;;;;;;;;;6318128;28;20137;-75
2024/01/13 14:48:50;;;;;;;17.02;8.48;;;;;;;;;;6298600;28;20184;-75
2024/01/13 14:51:52;;;;;;;20.15;11.98;;;;;;;;;;6289483;28;20032;-75
2024/01/13 14:54:54;;;;;;;14.45;8.90;;;;;;;;;;6292611;28;20039;-75
2024/01/13 14:58:09;;;;;;;12.60;6.97;;;;;;;;;;6325900;28;20040;-75
2024/01/13 15:01:11;;;;;;;17.00;8.50;;;;;;;;;;6282185;28;20044;-75
2024/01/13 15:04:14;;;;;;;26.25;12.05;;;;;;;;;;6303147;28;20048;-76
2024/01/13 15:07:16;;;;;;;21.00;11.32;;;;;;;;;;6297001;28;20044;-77
2024/01/13 15:10:19;;;;;;;14.82;10.05;;;;;;;;;;6287295;28;20116;-77
2024/01/13 15:13:21;;;;;;;15.77;8.88;;;;;;;;;;6281685;28;20114;-76
2024/01/13 15:16:23;;;;;;;15.15;9.45;;;;;;;;;;6307691;28;20219;-77
2024/01/13 15:19:25;;;;;;;15.35;10.90;;;;;;;;;;6282712;28;20912;-76
2024/01/13 15:22:30;;;;;;;18.60;13.50;;;;;;;;;;6269860;28;20612;-76
2024/01/13 15:25:32;;;;;;;26.50;16.90;;;;;;;;;;6319817;28;20283;-76
2024/01/13 15:28:35;;;;;;;16.20;9.63;;;;;;;;;;6296533;28;20044;-77
2024/01/13 15:31:41;;;;;;;17.45;9.80;;;;;;;;;;6294886;28;20036;-75
2024/01/13 15:34:43;;;;;;;24.20;12.98;;;;;;;;;;6293209;28;20056;-76
2024/01/13 15:37:47;;;;;;;22.15;13.40;;;;;;;;;;6304094;28;20055;-76
2024/01/13 15:40:49;;;;;;;29.48;15.90;;;;;;;;;;6315805;28;20054;-76
2024/01/13 15:43:51;;;;;;;22.52;11.65;;;;;;;;;;6302750;28;20048;-77
2024/01/13 15:46:53;;;;;;;20.05;11.05;;;;;;;;;;6289289;28;20068;-76
2024/01/13 15:49:56;;;;;;;29.70;16.48;;;;;;;;;;6306638;28;20055;-76
2024/01/13 15:52:58;;;;;;;35.03;16.02;;;;;;;;;;6319582;28;20131;-77
2024/01/13 15:56:00;;;;;;;25.05;13.88;;;;;;;;;;6282023;28;20039;-77
2024/01/13 15:59:03;;;;;;;17.40;12.85;;;;;;;;;;6301363;28;20032;-76
2024/01/13 16:02:06;;;;;;;15.52;10.30;;;;;;;;;;6287816;28;20047;-76
2024/01/13 16:05:08;;;;;;;22.80;11.75;;;;;;;;;;6280886;28;20162;-77
2024/01/13 16:08:17;;;;;;;34.33;16.55;;;;;;;;;;6282448;28;20052;-76
2024/01/13 16:11:19;;;;;;;18.27;10.65;;;;;;;;;;6314196;28;20191;-77
2024/01/13 16:14:23;;;;;;;21.25;11.70;;;;;;;;;;6322124;28;20083;-77
2024/01/13 16:17:25;;;;;;;23.65;12.32;;;;;;;;;;6318334;28;20209;-76
2024/01/13 16:20:28;;;;;;;24.20;12.55;;;;;;;;;;6314652;28;20040;-77
2024/01/13 16:23:35;;;;;;;16.67;8.95;;;;;;;;;;6308901;28;20047;-76
2024/01/13 16:26:37;;;;;;;23.33;12.02;;;;;;;;;;6313220;28;20069;-76
2024/01/13 16:29:42;;;;;;;38.20;16.95;;;;;;;;;;6344755;28;20066;-77
2024/01/13 16:32:45;;;;;;;28.05;15.02;;;;;;;;;;6340322;28;20055;-76
2024/01/13 16:35:50;;;;;;;15.63;9.75;;;;;;;;;;6299647;28;20054;-76
2024/01/13 16:38:52;;;;;;;30.67;15.38;;;;;;;;;;6312946;28;20044;-77
2024/01/13 16:41:55;;;;;;;23.70;12.70;;;;;;;;;;6318066;28;20036;-78
2024/01/13 16:44:57;;;;;;;32.08;19.73;;;;;;;;;;6310317;28;20362;-77
2024/01/13 16:48:00;;;;;;;17.88;9.93;;;;;;;;;;6323081;28;20135;-77
2024/01/13 16:51:03;;;;;;;26.38;16.02;;;;;;;;;;6313192;28;20140;-77
2024/01/13 16:54:05;;;;;;;35.63;18.92;;;;;;;;;;6317203;28;20082;-77
2024/01/13 16:57:08;;;;;;;23.95;14.75;;;;;;;;;;6305031;28;20043;-77
2024/01/13 17:00:11;;;;;;;17.17;8.90;;;;;;;;;;6318267;28;20050;-76
2024/01/13 17:03:15;;;;;;;14.75;10.05;;;;;;;;;;6285445;28;20039;-76
2024/01/13 17:06:17;;;;;;;20.30;12.15;;;;;;;;;;6317745;28;20097;-76
2024/01/13 17:09:20;;;;;;;23.17;13.85;;;;;;;;;;6318448;28;20035;-77
2024/01/13 17:12:23;;;;;;;16.33;12.20;;;;;;;;;;6300756;28;20048;-76
2024/01/13 17:15:44;;;;;;;27.20;12.73;;;;;;;;;;6338513;28;20086;-77
2024/01/13 17:18:46;;;;;;;12.32;7.55;;;;;;;;;;6300550;28;20036;-76
2024/01/13 17:21:49;;;;;;;28.85;15.95;;;;;;;;;;6306335;28;20039;-76
2024/01/13 17:24:51;;;;;;;17.80;10.18;;;;;;;;;;6284519;28;20055;-77
2024/01/13 17:27:53;;;;;;;21.35;14.52;;;;;;;;;;6298239;28;20040;-77
2024/01/13 17:30:57;;;;;;;14.20;10.63;;;;;;;;;;6284538;28;20059;-76
2024/01/13 17:34:00;;;;;;;27.48;15.20;;;;;;;;;;6305669;28;20120;-77
2024/01/13 17:37:03;;;;;;;13.93;9.95;;;;;;;;;;6301836;28;20051;-76
2024/01/13 17:40:07;;;;;;;22.40;11.27;;;;;;;;;;6323461;28;20047;-77
2024/01/13 17:43:09;;;;;;;8.52;5.18;;;;;;;;;;6306429;28;20167;-77
2024/01/13 17:46:12;;;;;;;20.67;11.93;;;;;;;;;;6294538;28;20080;-77
2024/01/13 17:49:14;;;;;;;17.60;11.18;;;;;;;;;;6309199;28;20040;-76
2024/01/13 17:52:20;;;;;;;18.45;10.63;;;;;;;;;;6326243;28;20044;-78
2024/01/13 17:55:44;;;;;;;27.80;15.88;;;;;;;;;;6314249;28;20572;-77
2024/01/13 17:58:48;;;;;;;26.00;16.02;;;;;;;;;;6318463;28;20054;-78